sensor_id;sensor_type;location;lat;lon;timestamp;P1;durP1;ratioP1;P2;durP2;ratioP2
75680;SDS011;64294;49.176;16.626;2023-02-02T00:01:23;3.22;;;1.30;;
75680;SDS011;64294;49.176;16.626;2023-02-02T00:03:49;4.32;;;1.30;;
75680;SDS011;64294;49.176;16.626;2023-02-02T00:06:18;4.00;;;1.45;;
75680;SDS011;64294;49.176;16.626;2023-02-02T00:08:44;2.80;;;1.17;;
75680;SDS011;64294;49.176;16.626;2023-02-02T00:11:10;1.92;;;1.20;;
75680;SDS011;64294;49.176;16.626;2023-02-02T00:13:36;7.53;;;1.45;;
75680;SDS011;64294;49.176;16.626;2023-02-02T00:18:59;3.00;;;1.27;;
75680;SDS011;64294;49.176;16.626;2023-02-02T00:21:30;3.60;;;1.40;;
75680;SDS011;64294;49.176;16.626;2023-02-02T00:23:56;2.90;;;1.33;;
75680;SDS011;64294;49.176;16.626;2023-02-02T00:26:21;2.25;;;1.60;;
75680;SDS011;64294;49.176;16.626;2023-02-02T00:28:47;6.10;;;1.73;;
75680;SDS011;64294;49.176;16.626;2023-02-02T00:31:12;3.22;;;1.50;;
75680;SDS011;64294;49.176;16.626;2023-02-02T00:33:37;3.35;;;1.35;;
75680;SDS011;64294;49.176;16.626;2023-02-02T00:36:03;3.08;;;1.40;;
75680;SDS011;64294;49.176;16.626;2023-02-02T00:38:29;6.20;;;1.60;;
75680;SDS011;64294;49.176;16.626;2023-02-02T00:40:56;5.60;;;1.45;;
75680;SDS011;64294;49.176;16.626;2023-02-02T00:43:21;3.55;;;1.25;;
75680;SDS011;64294;49.176;16.626;2023-02-02T00:45:47;3.65;;;1.25;;
75680;SDS011;64294;49.176;16.626;2023-02-02T00:48:13;2.83;;;1.50;;
75680;SDS011;64294;49.176;16.626;2023-02-02T00:50:39;4.05;;;1.55;;
75680;SDS011;64294;49.176;16.626;2023-02-02T00:53:04;5.63;;;2.13;;
75680;SDS011;64294;49.176;16.626;2023-02-02T00:55:30;2.88;;;1.40;;
75680;SDS011;64294;49.176;16.626;2023-02-02T00:57:55;2.58;;;1.52;;
75680;SDS011;64294;49.176;16.626;2023-02-02T01:00:22;3.97;;;1.40;;
75680;SDS011;64294;49.176;16.626;2023-02-02T01:02:49;8.18;;;2.10;;
75680;SDS011;64294;49.176;16.626;2023-02-02T01:05:15;4.43;;;1.45;;
75680;SDS011;64294;49.176;16.626;2023-02-02T01:07:41;3.35;;;1.50;;
75680;SDS011;64294;49.176;16.626;2023-02-02T01:10:09;4.78;;;1.48;;
75680;SDS011;64294;49.176;16.626;2023-02-02T01:12:36;4.25;;;1.40;;
75680;SDS011;64294;49.176;16.626;2023-02-02T01:15:02;3.63;;;1.48;;
75680;SDS011;64294;49.176;16.626;2023-02-02T01:17:28;5.32;;;1.65;;
75680;SDS011;64294;49.176;16.626;2023-02-02T01:19:54;6.47;;;1.60;;
75680;SDS011;64294;49.176;16.626;2023-02-02T01:22:19;6.88;;;1.80;;
75680;SDS011;64294;49.176;16.626;2023-02-02T01:24:44;3.88;;;1.52;;
75680;SDS011;64294;49.176;16.626;2023-02-02T01:27:10;4.60;;;1.50;;
75680;SDS011;64294;49.176;16.626;2023-02-02T01:29:35;6.40;;;1.85;;
75680;SDS011;64294;49.176;16.626;2023-02-02T01:32:00;5.03;;;1.70;;
75680;SDS011;64294;49.176;16.626;2023-02-02T01:34:26;8.90;;;2.15;;
75680;SDS011;64294;49.176;16.626;2023-02-02T01:36:51;4.60;;;1.88;;
75680;SDS011;64294;49.176;16.626;2023-02-02T01:39:17;3.75;;;2.05;;
75680;SDS011;64294;49.176;16.626;2023-02-02T01:41:43;6.53;;;2.03;;
75680;SDS011;64294;49.176;16.626;2023-02-02T01:47:11;5.88;;;1.77;;
75680;SDS011;64294;49.176;16.626;2023-02-02T01:49:37;5.78;;;1.63;;
75680;SDS011;64294;49.176;16.626;2023-02-02T01:52:04;4.03;;;1.60;;
75680;SDS011;64294;49.176;16.626;2023-02-02T01:57:21;4.28;;;1.52;;
75680;SDS011;64294;49.176;16.626;2023-02-02T01:59:50;3.33;;;1.60;;
75680;SDS011;64294;49.176;16.626;2023-02-02T02:02:20;4.95;;;1.65;;
75680;SDS011;64294;49.176;16.626;2023-02-02T02:04:46;7.78;;;1.73;;
75680;SDS011;64294;49.176;16.626;2023-02-02T02:07:14;2.42;;;1.55;;
75680;SDS011;64294;49.176;16.626;2023-02-02T02:09:39;3.35;;;1.60;;
75680;SDS011;64294;49.176;16.626;2023-02-02T02:12:11;5.93;;;1.60;;
75680;SDS011;64294;49.176;16.626;2023-02-02T02:14:39;4.90;;;1.80;;
75680;SDS011;64294;49.176;16.626;2023-02-02T02:34:17;5.25;;;1.55;;
75680;SDS011;64294;49.176;16.626;2023-02-02T02:40:39;4.95;;;1.52;;
75680;SDS011;64294;49.176;16.626;2023-02-02T02:42:51;5.32;;;1.80;;
75680;SDS011;64294;49.176;16.626;2023-02-02T02:45:21;8.55;;;1.73;;
75680;SDS011;64294;49.176;16.626;2023-02-02T02:47:49;6.53;;;1.80;;
75680;SDS011;64294;49.176;16.626;2023-02-02T02:50:15;4.13;;;1.70;;
75680;SDS011;64294;49.176;16.626;2023-02-02T02:52:40;5.65;;;1.65;;
75680;SDS011;64294;49.176;16.626;2023-02-02T02:55:07;6.32;;;1.52;;
75680;SDS011;64294;49.176;16.626;2023-02-02T02:57:40;5.60;;;1.70;;
75680;SDS011;64294;49.176;16.626;2023-02-02T03:05:35;5.70;;;1.45;;
75680;SDS011;64294;49.176;16.626;2023-02-02T03:11:13;7.18;;;1.92;;
75680;SDS011;64294;49.176;16.626;2023-02-02T03:13:40;3.40;;;1.50;;
75680;SDS011;64294;49.176;16.626;2023-02-02T03:16:07;5.22;;;1.65;;
75680;SDS011;64294;49.176;16.626;2023-02-02T03:18:33;5.95;;;1.90;;
75680;SDS011;64294;49.176;16.626;2023-02-02T03:20:59;7.15;;;2.35;;
75680;SDS011;64294;49.176;16.626;2023-02-02T03:23:25;5.20;;;1.52;;
75680;SDS011;64294;49.176;16.626;2023-02-02T03:25:51;4.32;;;1.50;;
75680;SDS011;64294;49.176;16.626;2023-02-02T03:28:17;2.72;;;1.58;;
75680;SDS011;64294;49.176;16.626;2023-02-02T03:30:43;3.97;;;1.60;;
75680;SDS011;64294;49.176;16.626;2023-02-02T03:33:10;7.90;;;2.05;;
75680;SDS011;64294;49.176;16.626;2023-02-02T03:35:37;5.10;;;1.48;;
75680;SDS011;64294;49.176;16.626;2023-02-02T03:38:03;6.32;;;1.52;;
75680;SDS011;64294;49.176;16.626;2023-02-02T03:40:28;5.63;;;1.52;;
75680;SDS011;64294;49.176;16.626;2023-02-02T03:42:54;4.78;;;1.67;;
75680;SDS011;64294;49.176;16.626;2023-02-02T03:45:20;4.05;;;1.42;;
75680;SDS011;64294;49.176;16.626;2023-02-02T03:47:45;6.97;;;1.52;;
75680;SDS011;64294;49.176;16.626;2023-02-02T03:50:11;7.18;;;1.60;;
75680;SDS011;64294;49.176;16.626;2023-02-02T03:52:36;4.35;;;1.60;;
75680;SDS011;64294;49.176;16.626;2023-02-02T03:55:02;4.13;;;1.38;;
75680;SDS011;64294;49.176;16.626;2023-02-02T03:57:28;6.05;;;1.63;;
75680;SDS011;64294;49.176;16.626;2023-02-02T03:59:53;3.90;;;1.33;;
75680;SDS011;64294;49.176;16.626;2023-02-02T04:02:18;3.50;;;1.52;;
75680;SDS011;64294;49.176;16.626;2023-02-02T04:04:44;7.65;;;1.65;;
75680;SDS011;64294;49.176;16.626;2023-02-02T04:07:09;4.30;;;1.30;;
75680;SDS011;64294;49.176;16.626;2023-02-02T04:09:34;2.40;;;1.25;;
75680;SDS011;64294;49.176;16.626;2023-02-02T04:12:00;5.20;;;1.50;;
75680;SDS011;64294;49.176;16.626;2023-02-02T04:14:25;6.75;;;1.98;;
75680;SDS011;64294;49.176;16.626;2023-02-02T04:16:51;6.32;;;1.40;;
75680;SDS011;64294;49.176;16.626;2023-02-02T04:19:16;5.20;;;1.45;;
75680;SDS011;64294;49.176;16.626;2023-02-02T04:21:42;5.20;;;1.33;;
75680;SDS011;64294;49.176;16.626;2023-02-02T04:24:11;4.00;;;1.33;;
75680;SDS011;64294;49.176;16.626;2023-02-02T04:26:37;3.78;;;1.58;;
75680;SDS011;64294;49.176;16.626;2023-02-02T04:29:02;4.18;;;1.40;;
75680;SDS011;64294;49.176;16.626;2023-02-02T04:31:28;3.67;;;1.10;;
75680;SDS011;64294;49.176;16.626;2023-02-02T04:33:54;3.47;;;1.50;;
75680;SDS011;64294;49.176;16.626;2023-02-02T04:36:20;3.85;;;1.48;;
75680;SDS011;64294;49.176;16.626;2023-02-02T04:38:49;1.75;;;1.20;;
75680;SDS011;64294;49.176;16.626;2023-02-02T04:41:16;4.47;;;1.20;;
75680;SDS011;64294;49.176;16.626;2023-02-02T04:43:42;2.25;;;1.40;;
75680;SDS011;64294;49.176;16.626;2023-02-02T04:46:08;3.75;;;1.60;;
75680;SDS011;64294;49.176;16.626;2023-02-02T04:48:34;3.95;;;1.40;;
75680;SDS011;64294;49.176;16.626;2023-02-02T04:51:00;7.28;;;1.50;;
75680;SDS011;64294;49.176;16.626;2023-02-02T04:53:28;7.28;;;2.20;;
75680;SDS011;64294;49.176;16.626;2023-02-02T04:55:54;5.28;;;1.40;;
75680;SDS011;64294;49.176;16.626;2023-02-02T04:58:19;6.55;;;1.60;;
75680;SDS011;64294;49.176;16.626;2023-02-02T05:00:45;7.00;;;1.67;;
75680;SDS011;64294;49.176;16.626;2023-02-02T05:03:10;3.97;;;1.77;;
75680;SDS011;64294;49.176;16.626;2023-02-02T05:05:36;6.68;;;2.33;;
75680;SDS011;64294;49.176;16.626;2023-02-02T05:08:01;7.53;;;1.80;;
75680;SDS011;64294;49.176;16.626;2023-02-02T05:10:27;8.45;;;1.75;;
75680;SDS011;64294;49.176;16.626;2023-02-02T05:12:52;5.70;;;1.80;;
75680;SDS011;64294;49.176;16.626;2023-02-02T05:15:18;3.72;;;1.55;;
75680;SDS011;64294;49.176;16.626;2023-02-02T05:17:45;5.13;;;1.60;;
75680;SDS011;64294;49.176;16.626;2023-02-02T05:20:11;8.02;;;1.90;;
75680;SDS011;64294;49.176;16.626;2023-02-02T05:22:36;4.28;;;1.45;;
75680;SDS011;64294;49.176;16.626;2023-02-02T05:25:02;4.05;;;1.40;;
75680;SDS011;64294;49.176;16.626;2023-02-02T05:27:29;4.43;;;1.50;;
75680;SDS011;64294;49.176;16.626;2023-02-02T05:29:54;4.68;;;1.65;;
75680;SDS011;64294;49.176;16.626;2023-02-02T05:32:20;5.20;;;1.77;;
75680;SDS011;64294;49.176;16.626;2023-02-02T05:34:45;7.45;;;2.03;;
75680;SDS011;64294;49.176;16.626;2023-02-02T05:37:10;6.57;;;1.60;;
75680;SDS011;64294;49.176;16.626;2023-02-02T05:39:36;5.18;;;1.88;;
75680;SDS011;64294;49.176;16.626;2023-02-02T05:42:01;4.75;;;1.58;;
75680;SDS011;64294;49.176;16.626;2023-02-02T05:44:26;4.15;;;1.80;;
75680;SDS011;64294;49.176;16.626;2023-02-02T05:46:52;5.47;;;1.70;;
75680;SDS011;64294;49.176;16.626;2023-02-02T05:49:17;5.70;;;1.80;;
75680;SDS011;64294;49.176;16.626;2023-02-02T05:51:43;8.15;;;2.20;;
75680;SDS011;64294;49.176;16.626;2023-02-02T05:54:14;7.40;;;1.67;;
75680;SDS011;64294;49.176;16.626;2023-02-02T05:56:43;4.75;;;1.50;;
75680;SDS011;64294;49.176;16.626;2023-02-02T05:59:09;6.00;;;1.70;;
75680;SDS011;64294;49.176;16.626;2023-02-02T06:01:34;4.70;;;1.50;;
75680;SDS011;64294;49.176;16.626;2023-02-02T06:04:00;6.22;;;1.40;;
75680;SDS011;64294;49.176;16.626;2023-02-02T06:06:25;6.22;;;1.50;;
75680;SDS011;64294;49.176;16.626;2023-02-02T06:08:51;4.30;;;1.50;;
75680;SDS011;64294;49.176;16.626;2023-02-02T06:11:17;7.95;;;1.50;;
75680;SDS011;64294;49.176;16.626;2023-02-02T06:13:42;5.22;;;1.38;;
75680;SDS011;64294;49.176;16.626;2023-02-02T06:16:08;4.70;;;1.30;;
75680;SDS011;64294;49.176;16.626;2023-02-02T06:18:34;4.93;;;1.65;;
75680;SDS011;64294;49.176;16.626;2023-02-02T06:21:01;4.45;;;1.90;;
75680;SDS011;64294;49.176;16.626;2023-02-02T06:23:28;10.07;;;2.28;;
75680;SDS011;64294;49.176;16.626;2023-02-02T06:25:54;5.15;;;1.70;;
75680;SDS011;64294;49.176;16.626;2023-02-02T06:28:19;6.75;;;1.83;;
75680;SDS011;64294;49.176;16.626;2023-02-02T06:30:45;4.38;;;1.80;;
75680;SDS011;64294;49.176;16.626;2023-02-02T06:33:10;6.18;;;1.85;;
75680;SDS011;64294;49.176;16.626;2023-02-02T06:35:36;7.93;;;2.42;;
75680;SDS011;64294;49.176;16.626;2023-02-02T06:38:01;6.10;;;1.63;;
75680;SDS011;64294;49.176;16.626;2023-02-02T06:40:27;8.05;;;2.30;;
75680;SDS011;64294;49.176;16.626;2023-02-02T06:42:56;7.35;;;2.60;;
75680;SDS011;64294;49.176;16.626;2023-02-02T06:45:23;3.33;;;1.55;;
75680;SDS011;64294;49.176;16.626;2023-02-02T06:47:49;5.82;;;1.63;;
75680;SDS011;64294;49.176;16.626;2023-02-02T06:50:14;4.35;;;1.40;;
75680;SDS011;64294;49.176;16.626;2023-02-02T06:52:45;7.20;;;1.77;;
75680;SDS011;64294;49.176;16.626;2023-02-02T06:55:12;3.53;;;1.42;;
75680;SDS011;64294;49.176;16.626;2023-02-02T06:57:38;5.47;;;1.52;;
75680;SDS011;64294;49.176;16.626;2023-02-02T07:00:03;7.32;;;1.60;;
75680;SDS011;64294;49.176;16.626;2023-02-02T07:02:29;6.30;;;1.50;;
75680;SDS011;64294;49.176;16.626;2023-02-02T07:04:54;6.03;;;1.98;;
75680;SDS011;64294;49.176;16.626;2023-02-02T07:07:20;2.95;;;1.40;;
75680;SDS011;64294;49.176;16.626;2023-02-02T07:09:45;5.35;;;1.98;;
75680;SDS011;64294;49.176;16.626;2023-02-02T07:12:10;4.57;;;1.30;;
75680;SDS011;64294;49.176;16.626;2023-02-02T07:14:36;4.43;;;1.60;;
75680;SDS011;64294;49.176;16.626;2023-02-02T07:17:01;5.35;;;1.40;;
75680;SDS011;64294;49.176;16.626;2023-02-02T07:19:27;6.03;;;1.80;;
75680;SDS011;64294;49.176;16.626;2023-02-02T07:21:52;8.52;;;1.80;;
75680;SDS011;64294;49.176;16.626;2023-02-02T07:24:18;5.97;;;1.80;;
75680;SDS011;64294;49.176;16.626;2023-02-02T07:26:43;5.95;;;1.77;;
75680;SDS011;64294;49.176;16.626;2023-02-02T07:29:11;8.13;;;2.15;;
75680;SDS011;64294;49.176;16.626;2023-02-02T07:31:40;7.25;;;2.13;;
75680;SDS011;64294;49.176;16.626;2023-02-02T07:34:06;6.55;;;1.80;;
75680;SDS011;64294;49.176;16.626;2023-02-02T07:36:31;5.60;;;1.45;;
75680;SDS011;64294;49.176;16.626;2023-02-02T07:38:57;4.95;;;1.88;;
75680;SDS011;64294;49.176;16.626;2023-02-02T07:41:23;5.82;;;1.63;;
75680;SDS011;64294;49.176;16.626;2023-02-02T07:43:49;4.32;;;1.40;;
75680;SDS011;64294;49.176;16.626;2023-02-02T07:46:15;6.05;;;1.33;;
75680;SDS011;64294;49.176;16.626;2023-02-02T07:48:41;5.28;;;1.40;;
75680;SDS011;64294;49.176;16.626;2023-02-02T07:51:08;7.88;;;1.70;;
75680;SDS011;64294;49.176;16.626;2023-02-02T07:53:36;9.73;;;1.80;;
75680;SDS011;64294;49.176;16.626;2023-02-02T07:56:14;7.20;;;1.40;;
75680;SDS011;64294;49.176;16.626;2023-02-02T07:58:42;1.80;;;1.08;;
75680;SDS011;64294;49.176;16.626;2023-02-02T08:01:08;3.72;;;1.60;;
75680;SDS011;64294;49.176;16.626;2023-02-02T08:03:35;5.00;;;1.40;;
75680;SDS011;64294;49.176;16.626;2023-02-02T08:06:07;6.53;;;1.70;;
75680;SDS011;64294;49.176;16.626;2023-02-02T08:08:36;5.30;;;1.55;;
75680;SDS011;64294;49.176;16.626;2023-02-02T08:11:01;8.45;;;2.10;;
75680;SDS011;64294;49.176;16.626;2023-02-02T08:13:26;4.70;;;1.50;;
75680;SDS011;64294;49.176;16.626;2023-02-02T08:15:52;7.53;;;1.75;;
75680;SDS011;64294;49.176;16.626;2023-02-02T08:18:17;4.40;;;1.52;;
75680;SDS011;64294;49.176;16.626;2023-02-02T08:20:43;5.45;;;1.70;;
75680;SDS011;64294;49.176;16.626;2023-02-02T08:23:08;8.68;;;2.35;;
75680;SDS011;64294;49.176;16.626;2023-02-02T08:25:39;6.55;;;1.98;;
75680;SDS011;64294;49.176;16.626;2023-02-02T08:28:05;5.07;;;1.50;;
75680;SDS011;64294;49.176;16.626;2023-02-02T08:30:30;4.50;;;1.40;;
75680;SDS011;64294;49.176;16.626;2023-02-02T08:32:56;5.90;;;1.67;;
75680;SDS011;64294;49.176;16.626;2023-02-02T08:35:21;6.80;;;2.00;;
75680;SDS011;64294;49.176;16.626;2023-02-02T08:37:47;7.30;;;1.73;;
75680;SDS011;64294;49.176;16.626;2023-02-02T08:40:13;4.72;;;1.65;;
75680;SDS011;64294;49.176;16.626;2023-02-02T08:42:39;6.22;;;1.90;;
75680;SDS011;64294;49.176;16.626;2023-02-02T08:45:05;5.60;;;1.70;;
75680;SDS011;64294;49.176;16.626;2023-02-02T08:47:31;5.93;;;2.03;;
75680;SDS011;64294;49.176;16.626;2023-02-02T08:49:56;5.00;;;1.73;;
75680;SDS011;64294;49.176;16.626;2023-02-02T08:52:21;6.22;;;1.60;;
75680;SDS011;64294;49.176;16.626;2023-02-02T08:54:47;4.65;;;1.73;;
75680;SDS011;64294;49.176;16.626;2023-02-02T08:57:12;3.97;;;1.70;;
75680;SDS011;64294;49.176;16.626;2023-02-02T08:59:38;5.50;;;1.30;;
75680;SDS011;64294;49.176;16.626;2023-02-02T09:02:03;5.15;;;1.63;;
75680;SDS011;64294;49.176;16.626;2023-02-02T09:04:29;7.15;;;1.58;;
75680;SDS011;64294;49.176;16.626;2023-02-02T09:06:54;5.15;;;1.60;;
75680;SDS011;64294;49.176;16.626;2023-02-02T09:09:19;7.60;;;1.92;;
75680;SDS011;64294;49.176;16.626;2023-02-02T09:11:45;6.97;;;1.55;;
75680;SDS011;64294;49.176;16.626;2023-02-02T09:14:11;5.38;;;1.70;;
75680;SDS011;64294;49.176;16.626;2023-02-02T09:16:37;7.55;;;2.03;;
75680;SDS011;64294;49.176;16.626;2023-02-02T09:19:03;3.47;;;1.30;;
75680;SDS011;64294;49.176;16.626;2023-02-02T09:21:29;7.15;;;1.75;;
75680;SDS011;64294;49.176;16.626;2023-02-02T09:23:55;3.88;;;1.55;;
75680;SDS011;64294;49.176;16.626;2023-02-02T09:28:51;5.50;;;1.85;;
75680;SDS011;64294;49.176;16.626;2023-02-02T09:31:26;7.15;;;1.70;;
75680;SDS011;64294;49.176;16.626;2023-02-02T09:33:52;7.18;;;2.00;;
75680;SDS011;64294;49.176;16.626;2023-02-02T09:36:18;6.20;;;1.60;;
75680;SDS011;64294;49.176;16.626;2023-02-02T09:38:46;7.25;;;1.83;;
75680;SDS011;64294;49.176;16.626;2023-02-02T09:55:02;8.38;;;1.60;;
75680;SDS011;64294;49.176;16.626;2023-02-02T09:57:36;7.97;;;1.83;;
75680;SDS011;64294;49.176;16.626;2023-02-02T10:00:05;4.78;;;1.48;;
75680;SDS011;64294;49.176;16.626;2023-02-02T10:03:02;8.02;;;1.80;;
75680;SDS011;64294;49.176;16.626;2023-02-02T10:05:45;9.18;;;1.50;;
75680;SDS011;64294;49.176;16.626;2023-02-02T10:08:53;4.10;;;1.65;;
75680;SDS011;64294;49.176;16.626;2023-02-02T10:13:53;5.70;;;1.58;;
75680;SDS011;64294;49.176;16.626;2023-02-02T10:16:23;6.07;;;1.50;;
75680;SDS011;64294;49.176;16.626;2023-02-02T10:24:24;9.73;;;1.73;;
75680;SDS011;64294;49.176;16.626;2023-02-02T10:26:52;4.55;;;1.50;;
75680;SDS011;64294;49.176;16.626;2023-02-02T10:42:24;6.47;;;1.80;;
75680;SDS011;64294;49.176;16.626;2023-02-02T10:44:58;7.22;;;1.67;;
75680;SDS011;64294;49.176;16.626;2023-02-02T10:47:28;8.07;;;1.75;;
75680;SDS011;64294;49.176;16.626;2023-02-02T10:50:01;7.60;;;2.15;;
75680;SDS011;64294;49.176;16.626;2023-02-02T10:52:41;6.82;;;1.80;;
75680;SDS011;64294;49.176;16.626;2023-02-02T11:03:11;4.78;;;1.67;;
75680;SDS011;64294;49.176;16.626;2023-02-02T11:05:38;5.63;;;1.60;;
75680;SDS011;64294;49.176;16.626;2023-02-02T11:11:15;5.70;;;1.73;;
75680;SDS011;64294;49.176;16.626;2023-02-02T11:13:50;6.93;;;1.50;;
75680;SDS011;64294;49.176;16.626;2023-02-02T11:16:23;6.80;;;2.10;;
75680;SDS011;64294;49.176;16.626;2023-02-02T11:18:51;11.85;;;2.10;;
75680;SDS011;64294;49.176;16.626;2023-02-02T11:26:23;7.80;;;1.75;;
75680;SDS011;64294;49.176;16.626;2023-02-02T11:28:49;6.18;;;1.77;;
75680;SDS011;64294;49.176;16.626;2023-02-02T11:34:08;9.25;;;1.92;;
75680;SDS011;64294;49.176;16.626;2023-02-02T11:36:54;5.85;;;1.73;;
75680;SDS011;64294;49.176;16.626;2023-02-02T11:39:26;8.98;;;1.90;;
75680;SDS011;64294;49.176;16.626;2023-02-02T11:47:31;5.13;;;2.05;;
75680;SDS011;64294;49.176;16.626;2023-02-02T11:49:58;5.53;;;2.00;;
75680;SDS011;64294;49.176;16.626;2023-02-02T11:52:26;7.20;;;1.90;;
75680;SDS011;64294;49.176;16.626;2023-02-02T11:54:56;6.00;;;1.70;;
75680;SDS011;64294;49.176;16.626;2023-02-02T11:57:26;4.53;;;1.60;;
75680;SDS011;64294;49.176;16.626;2023-02-02T12:00:26;7.55;;;2.00;;
75680;SDS011;64294;49.176;16.626;2023-02-02T12:02:50;7.85;;;2.63;;
75680;SDS011;64294;49.176;16.626;2023-02-02T12:07:44;7.53;;;2.25;;
75680;SDS011;64294;49.176;16.626;2023-02-02T12:21:07;8.07;;;1.83;;
75680;SDS011;64294;49.176;16.626;2023-02-02T12:26:32;11.55;;;2.20;;
75680;SDS011;64294;49.176;16.626;2023-02-02T12:37:27;6.53;;;2.38;;
75680;SDS011;64294;49.176;16.626;2023-02-02T13:11:06;8.45;;;2.30;;
75680;SDS011;64294;49.176;16.626;2023-02-02T13:13:55;7.90;;;2.50;;
75680;SDS011;64294;49.176;16.626;2023-02-02T13:16:29;8.55;;;1.80;;
75680;SDS011;64294;49.176;16.626;2023-02-02T13:19:02;6.90;;;1.88;;
75680;SDS011;64294;49.176;16.626;2023-02-02T13:21:31;7.35;;;2.30;;
75680;SDS011;64294;49.176;16.626;2023-02-02T13:24:02;9.63;;;2.33;;
75680;SDS011;64294;49.176;16.626;2023-02-02T13:26:31;9.15;;;2.58;;
75680;SDS011;64294;49.176;16.626;2023-02-02T13:34:33;8.10;;;2.05;;
75680;SDS011;64294;49.176;16.626;2023-02-02T13:40:03;6.53;;;1.60;;
75680;SDS011;64294;49.176;16.626;2023-02-02T13:42:50;6.28;;;1.80;;
75680;SDS011;64294;49.176;16.626;2023-02-02T13:56:52;9.00;;;2.17;;
75680;SDS011;64294;49.176;16.626;2023-02-02T14:01:47;10.80;;;1.85;;
75680;SDS011;64294;49.176;16.626;2023-02-02T14:04:20;6.53;;;2.05;;
75680;SDS011;64294;49.176;16.626;2023-02-02T14:07:02;8.80;;;2.27;;
75680;SDS011;64294;49.176;16.626;2023-02-02T14:09:31;8.68;;;2.42;;
75680;SDS011;64294;49.176;16.626;2023-02-02T14:12:00;4.40;;;1.60;;
75680;SDS011;64294;49.176;16.626;2023-02-02T14:14:31;6.15;;;2.30;;
75680;SDS011;64294;49.176;16.626;2023-02-02T14:24:41;7.47;;;2.15;;
75680;SDS011;64294;49.176;16.626;2023-02-02T14:40:45;6.45;;;2.70;;
75680;SDS011;64294;49.176;16.626;2023-02-02T14:43:26;8.50;;;2.15;;
75680;SDS011;64294;49.176;16.626;2023-02-02T14:48:40;6.90;;;2.53;;
75680;SDS011;64294;49.176;16.626;2023-02-02T14:51:15;12.85;;;2.55;;
75680;SDS011;64294;49.176;16.626;2023-02-02T14:53:46;9.48;;;2.30;;
75680;SDS011;64294;49.176;16.626;2023-02-02T14:56:17;7.68;;;2.55;;
75680;SDS011;64294;49.176;16.626;2023-02-02T14:59:02;8.55;;;2.28;;
75680;SDS011;64294;49.176;16.626;2023-02-02T15:01:30;7.65;;;2.50;;
75680;SDS011;64294;49.176;16.626;2023-02-02T15:04:20;6.82;;;2.45;;
75680;SDS011;64294;49.176;16.626;2023-02-02T15:06:49;8.30;;;2.08;;
75680;SDS011;64294;49.176;16.626;2023-02-02T15:20:11;7.43;;;2.70;;
75680;SDS011;64294;49.176;16.626;2023-02-02T15:25:16;8.45;;;2.63;;
75680;SDS011;64294;49.176;16.626;2023-02-02T15:27:49;7.18;;;2.50;;
75680;SDS011;64294;49.176;16.626;2023-02-02T15:30:22;8.40;;;3.00;;
75680;SDS011;64294;49.176;16.626;2023-02-02T15:32:50;10.63;;;3.22;;
75680;SDS011;64294;49.176;16.626;2023-02-02T15:35:20;13.05;;;4.05;;
75680;SDS011;64294;49.176;16.626;2023-02-02T15:37:52;8.63;;;3.15;;
75680;SDS011;64294;49.176;16.626;2023-02-02T15:40:29;12.13;;;3.03;;
75680;SDS011;64294;49.176;16.626;2023-02-02T15:42:59;9.75;;;2.90;;
75680;SDS011;64294;49.176;16.626;2023-02-02T15:47:53;8.00;;;2.80;;
75680;SDS011;64294;49.176;16.626;2023-02-02T15:50:21;7.10;;;2.70;;
75680;SDS011;64294;49.176;16.626;2023-02-02T15:52:47;9.05;;;3.17;;
75680;SDS011;64294;49.176;16.626;2023-02-02T15:55:22;6.50;;;2.50;;
75680;SDS011;64294;49.176;16.626;2023-02-02T15:57:52;8.65;;;3.00;;
75680;SDS011;64294;49.176;16.626;2023-02-02T16:02:59;11.45;;;2.90;;
75680;SDS011;64294;49.176;16.626;2023-02-02T16:08:05;8.52;;;2.80;;
75680;SDS011;64294;49.176;16.626;2023-02-02T16:10:42;7.32;;;2.60;;
75680;SDS011;64294;49.176;16.626;2023-02-02T16:13:16;9.02;;;2.67;;
75680;SDS011;64294;49.176;16.626;2023-02-02T16:15:55;8.32;;;2.80;;
75680;SDS011;64294;49.176;16.626;2023-02-02T16:18:28;13.52;;;4.07;;
75680;SDS011;64294;49.176;16.626;2023-02-02T16:20:54;11.98;;;3.60;;
75680;SDS011;64294;49.176;16.626;2023-02-02T16:23:32;10.75;;;3.30;;
75680;SDS011;64294;49.176;16.626;2023-02-02T16:26:01;10.55;;;2.65;;
75680;SDS011;64294;49.176;16.626;2023-02-02T16:28:29;11.25;;;2.90;;
75680;SDS011;64294;49.176;16.626;2023-02-02T16:30:58;8.80;;;3.17;;
75680;SDS011;64294;49.176;16.626;2023-02-02T16:33:28;10.90;;;3.08;;
75680;SDS011;64294;49.176;16.626;2023-02-02T16:35:59;10.00;;;2.90;;
75680;SDS011;64294;49.176;16.626;2023-02-02T16:41:02;10.05;;;3.00;;
75680;SDS011;64294;49.176;16.626;2023-02-02T16:43:40;5.75;;;2.63;;
75680;SDS011;64294;49.176;16.626;2023-02-02T16:46:10;7.25;;;2.90;;
75680;SDS011;64294;49.176;16.626;2023-02-02T16:48:38;7.35;;;2.72;;
75680;SDS011;64294;49.176;16.626;2023-02-02T16:51:08;12.23;;;3.60;;
75680;SDS011;64294;49.176;16.626;2023-02-02T16:53:37;5.85;;;2.40;;
75680;SDS011;64294;49.176;16.626;2023-02-02T16:56:03;9.40;;;2.70;;
75680;SDS011;64294;49.176;16.626;2023-02-02T16:58:29;8.30;;;2.78;;
75680;SDS011;64294;49.176;16.626;2023-02-02T17:01:01;8.48;;;2.75;;
75680;SDS011;64294;49.176;16.626;2023-02-02T17:03:33;9.07;;;2.60;;
75680;SDS011;64294;49.176;16.626;2023-02-02T17:06:01;8.60;;;2.28;;
75680;SDS011;64294;49.176;16.626;2023-02-02T17:08:35;10.32;;;3.20;;
75680;SDS011;64294;49.176;16.626;2023-02-02T17:13:49;7.15;;;3.50;;
75680;SDS011;64294;49.176;16.626;2023-02-02T17:16:17;6.50;;;2.38;;
75680;SDS011;64294;49.176;16.626;2023-02-02T17:18:44;7.43;;;2.50;;
75680;SDS011;64294;49.176;16.626;2023-02-02T17:21:18;8.75;;;2.53;;
75680;SDS011;64294;49.176;16.626;2023-02-02T17:23:46;6.07;;;2.30;;
75680;SDS011;64294;49.176;16.626;2023-02-02T17:26:18;6.18;;;2.10;;
75680;SDS011;64294;49.176;16.626;2023-02-02T17:28:44;7.65;;;2.20;;
75680;SDS011;64294;49.176;16.626;2023-02-02T17:31:12;7.47;;;2.20;;
75680;SDS011;64294;49.176;16.626;2023-02-02T17:33:38;5.40;;;2.10;;
75680;SDS011;64294;49.176;16.626;2023-02-02T17:36:05;4.32;;;2.05;;
75680;SDS011;64294;49.176;16.626;2023-02-02T17:38:31;6.70;;;2.30;;
75680;SDS011;64294;49.176;16.626;2023-02-02T17:40:58;7.40;;;2.20;;
75680;SDS011;64294;49.176;16.626;2023-02-02T17:43:28;5.30;;;2.10;;
75680;SDS011;64294;49.176;16.626;2023-02-02T17:45:55;8.73;;;2.08;;
75680;SDS011;64294;49.176;16.626;2023-02-02T17:48:20;7.93;;;2.20;;
75680;SDS011;64294;49.176;16.626;2023-02-02T17:50:46;5.65;;;2.13;;
75680;SDS011;64294;49.176;16.626;2023-02-02T17:53:13;6.03;;;2.30;;
75680;SDS011;64294;49.176;16.626;2023-02-02T17:55:43;6.25;;;2.53;;
75680;SDS011;64294;49.176;16.626;2023-02-02T17:58:10;5.70;;;2.33;;
75680;SDS011;64294;49.176;16.626;2023-02-02T18:00:39;3.90;;;2.55;;
75680;SDS011;64294;49.176;16.626;2023-02-02T18:05:57;7.72;;;3.03;;
75680;SDS011;64294;49.176;16.626;2023-02-02T18:08:25;5.88;;;2.75;;
75680;SDS011;64294;49.176;16.626;2023-02-02T18:10:54;6.20;;;2.15;;
75680;SDS011;64294;49.176;16.626;2023-02-02T18:13:21;6.63;;;2.40;;
75680;SDS011;64294;49.176;16.626;2023-02-02T18:15:47;7.10;;;2.42;;
75680;SDS011;64294;49.176;16.626;2023-02-02T18:18:13;5.47;;;2.17;;
75680;SDS011;64294;49.176;16.626;2023-02-02T18:20:44;4.63;;;2.35;;
75680;SDS011;64294;49.176;16.626;2023-02-02T18:23:11;5.95;;;2.33;;
75680;SDS011;64294;49.176;16.626;2023-02-02T18:25:37;3.72;;;2.10;;
75680;SDS011;64294;49.176;16.626;2023-02-02T18:28:03;5.97;;;2.88;;
75680;SDS011;64294;49.176;16.626;2023-02-02T18:30:30;6.68;;;2.90;;